createdAt,value
2022-12-01T00:00:24.094Z,100282.56
2022-12-01T00:03:26.077Z,100280.69
2022-12-01T00:06:27.514Z,100273.41
2022-12-01T00:09:47.978Z,100269.69
2022-12-01T00:12:49.661Z,100278.78
2022-12-01T00:15:51.047Z,100271.75
2022-12-01T00:18:53.489Z,100268.69
2022-12-01T00:21:54.827Z,100264.50
2022-12-01T00:24:56.292Z,100272.00
2022-12-01T00:27:57.687Z,100267.81
2022-12-01T00:31:00.069Z,100274.19
2022-12-01T00:34:01.547Z,100269.59
2022-12-01T00:37:02.953Z,100267.47
2022-12-01T00:40:05.435Z,100275.94
2022-12-01T00:43:06.802Z,100273.47
2022-12-01T00:46:08.691Z,100278.28
2022-12-01T00:49:13.290Z,100275.44
2022-12-01T00:52:17.222Z,100280.72
2022-12-01T00:55:18.789Z,100283.41
2022-12-01T00:58:21.002Z,100289.22
2022-12-01T01:01:22.821Z,100286.59
2022-12-01T01:04:24.553Z,100296.47
2022-12-01T01:07:26.052Z,100292.75
2022-12-01T01:10:28.629Z,100291.13
2022-12-01T01:13:30.483Z,100293.25
2022-12-01T01:16:32.424Z,100284.19
2022-12-01T01:19:33.839Z,100288.91
2022-12-01T01:22:35.441Z,100292.44
2022-12-01T01:25:36.894Z,100287.81
2022-12-01T01:28:41.431Z,100291.25
2022-12-01T01:31:42.841Z,100295.25
2022-12-01T01:34:45.283Z,100293.25
2022-12-01T01:37:46.576Z,100294.25
2022-12-01T01:40:48.084Z,100291.97
2022-12-01T01:43:58.165Z,100291.41
2022-12-01T01:46:59.555Z,100293.16
2022-12-01T01:50:06.473Z,100288.53
2022-12-01T01:53:12.303Z,100294.13
2022-12-01T01:56:13.750Z,100288.50
2022-12-01T01:59:31.599Z,100299.84
2022-12-01T02:02:40.369Z,100299.03
2022-12-01T02:05:44.700Z,100301.13
2022-12-01T02:08:46.091Z,100293.84
2022-12-01T02:12:11.271Z,100296.22
2022-12-01T02:15:25.572Z,100299.66
2022-12-01T02:18:57.130Z,100295.16
2022-12-01T02:22:18.288Z,100297.75
2022-12-01T02:25:26.893Z,100297.03
2022-12-01T02:29:00.070Z,100296.84
2022-12-01T02:32:15.570Z,100296.44
2022-12-01T02:35:23.101Z,100294.88
2022-12-01T02:38:45.083Z,100295.78
2022-12-01T02:41:52.658Z,100294.88
2022-12-01T02:44:55.668Z,100299.81
2022-12-01T02:48:01.913Z,100296.00
2022-12-01T02:51:17.982Z,100292.69
2022-12-01T02:54:21.518Z,100297.88
2022-12-01T02:57:23.606Z,100299.31
2022-12-01T03:00:25.087Z,100293.72
2022-12-01T03:03:29.514Z,100294.88
2022-12-01T03:06:55.736Z,100296.75
2022-12-01T03:10:09.396Z,100296.00
2022-12-01T03:13:26.598Z,100300.19
2022-12-01T03:16:41.665Z,100300.38
2022-12-01T03:19:56.033Z,100289.97
2022-12-01T03:23:09.380Z,100296.00
2022-12-01T03:26:16.636Z,100293.72
2022-12-01T03:29:21.888Z,100271.88
2022-12-01T03:32:49.911Z,100273.22
2022-12-01T03:35:59.767Z,100267.63
2022-12-01T03:39:06.981Z,100271.69
2022-12-01T03:42:23.669Z,100281.34
2022-12-01T03:45:40.038Z,100280.81
2022-12-01T03:48:42.183Z,100276.25
2022-12-01T03:51:56.179Z,100287.66
2022-12-01T03:55:16.623Z,100283.78
2022-12-01T03:58:28.363Z,100276.31
2022-12-01T04:01:32.761Z,100288.22
2022-12-01T04:04:34.356Z,100288.69
2022-12-01T04:07:37.637Z,100295.00
2022-12-01T04:10:39.118Z,100295.84
2022-12-01T04:13:40.490Z,100293.25
2022-12-01T04:16:41.867Z,100296.81
2022-12-01T04:19:43.228Z,100296.25
2022-12-01T04:22:45.113Z,100295.03
2022-12-01T04:25:46.547Z,100297.59
2022-12-01T04:28:48.638Z,100299.13
2022-12-01T04:31:50.216Z,100300.03
2022-12-01T04:34:51.712Z,100299.94
2022-12-01T04:37:53.088Z,100305.50
2022-12-01T04:40:54.458Z,100303.34
2022-12-01T04:43:56.554Z,100311.38
2022-12-01T04:46:58.033Z,100309.19
2022-12-01T04:50:00.487Z,100308.78
2022-12-01T04:53:01.815Z,100316.44
2022-12-01T04:56:04.087Z,100315.19
2022-12-01T04:59:05.505Z,100311.53
2022-12-01T05:02:07.430Z,100311.44
2022-12-01T05:05:10.214Z,100318.94
2022-12-01T05:08:11.774Z,100319.75
2022-12-01T05:11:14.622Z,100319.00
2022-12-01T05:14:16.074Z,100312.13
2022-12-01T05:17:17.519Z,100314.25
2022-12-01T05:20:41.052Z,100312.00
2022-12-01T05:23:42.470Z,100323.00
2022-12-01T05:26:44.767Z,100322.16
2022-12-01T05:29:46.434Z,100320.59
2022-12-01T05:32:47.964Z,100314.13
2022-12-01T05:35:49.985Z,100326.63
2022-12-01T05:38:51.700Z,100321.75
2022-12-01T05:41:53.859Z,100320.84
2022-12-01T05:44:55.414Z,100318.84
2022-12-01T05:47:58.175Z,100321.75
2022-12-01T05:50:59.574Z,100319.47
2022-12-01T05:54:01.311Z,100326.94
2022-12-01T05:57:02.751Z,100325.91
2022-12-01T06:00:06.136Z,100326.72
2022-12-01T06:03:13.211Z,100326.28
2022-12-01T06:06:14.669Z,100328.28
2022-12-01T06:09:16.103Z,100335.50
2022-12-01T06:12:18.199Z,100335.19
2022-12-01T06:15:19.603Z,100335.75
2022-12-01T06:18:20.980Z,100340.78
2022-12-01T06:21:22.472Z,100344.50
2022-12-01T06:24:24.059Z,100337.50
2022-12-01T06:27:25.594Z,100346.13
2022-12-01T06:30:27.051Z,100346.78
2022-12-01T06:33:28.427Z,100344.66
2022-12-01T06:36:29.821Z,100342.44
2022-12-01T06:39:31.207Z,100350.56
2022-12-01T06:42:32.800Z,100351.34
2022-12-01T06:45:34.214Z,100355.09
2022-12-01T06:48:35.647Z,100354.47
2022-12-01T06:51:37.065Z,100359.75
2022-12-01T06:54:39.552Z,100365.88
2022-12-01T06:57:40.905Z,100370.75
2022-12-01T07:00:46.372Z,100374.81
2022-12-01T07:03:50.920Z,100374.00
2022-12-01T07:06:52.350Z,100382.78
2022-12-01T07:09:53.791Z,100376.13
2022-12-01T07:12:58.405Z,100378.59
2022-12-01T07:15:59.870Z,100387.16
2022-12-01T07:19:01.316Z,100384.63
2022-12-01T07:22:03.071Z,100391.72
2022-12-01T07:25:05.123Z,100390.06
2022-12-01T07:28:06.604Z,100396.50
2022-12-01T07:31:11.000Z,100389.69
2022-12-01T07:34:15.873Z,100405.63
2022-12-01T07:37:17.482Z,100398.75
2022-12-01T07:40:18.968Z,100402.72
2022-12-01T07:43:20.423Z,100410.41
2022-12-01T07:46:24.751Z,100409.22
2022-12-01T07:49:26.444Z,100405.69
2022-12-01T07:52:27.839Z,100413.53
2022-12-01T07:55:29.226Z,100422.28
2022-12-01T07:58:31.099Z,100424.13
2022-12-01T08:01:32.504Z,100421.66
2022-12-01T08:04:34.021Z,100430.25
2022-12-01T08:07:35.447Z,100431.72
2022-12-01T08:10:37.064Z,100435.94
2022-12-01T08:13:39.231Z,100421.22
2022-12-01T08:16:40.640Z,100424.31
2022-12-01T08:19:42.043Z,100430.25
2022-12-01T08:22:43.489Z,100423.50
2022-12-01T08:25:44.868Z,100436.72
2022-12-01T08:28:47.093Z,100428.69
2022-12-01T08:31:49.035Z,100431.75
2022-12-01T08:34:53.546Z,100440.75
2022-12-01T08:37:55.200Z,100431.63
2022-12-01T08:41:04.016Z,100433.44
2022-12-01T08:44:05.462Z,100429.84
2022-12-01T08:47:06.916Z,100435.69
2022-12-01T08:50:08.624Z,100430.28
2022-12-01T08:53:10.030Z,100431.09
2022-12-01T08:56:24.289Z,100441.13
2022-12-01T08:59:25.878Z,100440.81
2022-12-01T09:02:27.550Z,100449.59
2022-12-01T09:05:29.173Z,100455.34
2022-12-01T09:08:31.071Z,100451.22
2022-12-01T09:11:32.594Z,100453.50
2022-12-01T09:14:38.130Z,100454.59
2022-12-01T09:17:39.560Z,100456.06
2022-12-01T09:20:40.986Z,100453.34
2022-12-01T09:23:42.684Z,100457.25
2022-12-01T09:26:44.160Z,100459.78
2022-12-01T09:29:45.572Z,100453.00
2022-12-01T09:32:46.945Z,100452.66
2022-12-01T09:35:48.450Z,100461.16
2022-12-01T09:38:49.969Z,100462.78
2022-12-01T09:41:59.471Z,100461.66
2022-12-01T09:45:04.279Z,100460.16
2022-12-01T09:48:07.758Z,100458.81
2022-12-01T09:51:14.747Z,100460.78
2022-12-01T09:54:16.176Z,100460.13
2022-12-01T09:57:34.779Z,100456.19
2022-12-01T10:00:42.182Z,100458.22
2022-12-01T10:03:52.797Z,100449.84
2022-12-01T10:07:00.875Z,100436.41
2022-12-01T10:10:11.788Z,100441.22
2022-12-01T10:13:19.570Z,100437.09
2022-12-01T10:16:29.357Z,100432.09
2022-12-01T10:19:42.567Z,100436.59
2022-12-01T10:23:12.985Z,100431.38
2022-12-01T10:26:34.474Z,100428.34
2022-12-01T10:29:46.513Z,100427.94
2022-12-01T10:32:56.208Z,100421.97
2022-12-01T10:35:57.919Z,100424.69
2022-12-01T10:39:00.595Z,100411.75
2022-12-01T10:42:15.011Z,100418.19
2022-12-01T10:45:25.670Z,100413.75
2022-12-01T10:48:27.182Z,100423.78
2022-12-01T10:51:28.721Z,100419.84
2022-12-01T10:54:36.360Z,100415.53
2022-12-01T10:57:37.938Z,100414.38
2022-12-01T11:04:20.993Z,100408.34
2022-12-01T11:07:34.663Z,100386.06
2022-12-01T11:10:37.216Z,100381.56
2022-12-01T11:13:42.052Z,100385.44
2022-12-01T11:16:49.970Z,100379.25
2022-12-01T11:19:52.234Z,100380.25
2022-12-01T11:23:30.664Z,100380.59
2022-12-01T11:26:34.566Z,100380.25
2022-12-01T11:29:38.128Z,100380.78
2022-12-01T11:32:39.919Z,100374.81
2022-12-01T11:35:47.753Z,100377.56
2022-12-01T11:38:50.687Z,100382.38
2022-12-01T11:41:56.679Z,100375.00
2022-12-01T11:45:25.796Z,100372.88
2022-12-01T11:48:29.676Z,100366.63
2022-12-01T11:51:37.874Z,100368.69
2022-12-01T11:54:55.383Z,100368.28
2022-12-01T11:58:03.820Z,100357.25
2022-12-01T12:01:22.016Z,100357.75
2022-12-01T12:04:52.188Z,100353.88
2022-12-01T12:08:15.642Z,100356.22
2022-12-01T12:11:34.734Z,100356.47
2022-12-01T12:15:01.114Z,100362.31
2022-12-01T12:18:47.286Z,100356.91
2022-12-01T12:22:03.911Z,100361.47
2022-12-01T12:25:29.018Z,100358.25
2022-12-01T12:28:46.580Z,100361.22
2022-12-01T12:32:14.155Z,100358.28
2022-12-01T12:35:43.876Z,100363.53
2022-12-01T12:38:57.660Z,100359.06
2022-12-01T12:42:05.789Z,100362.47
2022-12-01T12:45:27.927Z,100361.94
2022-12-01T12:49:12.121Z,100360.94
2022-12-01T12:52:23.547Z,100361.16
2022-12-01T12:55:37.361Z,100357.94
2022-12-01T12:58:47.356Z,100359.94
2022-12-01T13:02:01.244Z,100359.25
2022-12-01T13:05:12.576Z,100353.69
2022-12-01T13:08:20.279Z,100345.50
2022-12-01T13:11:27.580Z,100348.38
2022-12-01T13:14:38.092Z,100351.09
2022-12-01T13:19:04.867Z,100351.28
2022-12-01T13:22:08.161Z,100351.00
2022-12-01T13:25:13.615Z,100341.88
2022-12-01T13:28:22.635Z,100346.09
2022-12-01T13:31:24.411Z,100338.41
2022-12-01T13:34:47.376Z,100344.50
2022-12-01T13:37:49.087Z,100341.41
2022-12-01T13:41:21.265Z,100336.59
2022-12-01T13:44:26.349Z,100347.50
2022-12-01T13:47:38.611Z,100344.50
2022-12-01T13:50:43.686Z,100338.88
2022-12-01T13:54:06.193Z,100337.50
2022-12-01T13:57:13.804Z,100336.13
2022-12-01T14:00:21.570Z,100327.03
2022-12-01T14:03:22.984Z,100327.28
2022-12-01T14:06:50.685Z,100338.13
2022-12-01T14:10:07.182Z,100332.47
2022-12-01T14:13:19.004Z,100333.59
2022-12-01T14:16:21.128Z,100339.78
2022-12-01T14:19:36.708Z,100334.31
2022-12-01T14:22:44.358Z,100328.59
2022-12-01T14:26:15.822Z,100331.50
2022-12-01T14:29:42.378Z,100335.06
2022-12-01T14:32:43.828Z,100329.53
2022-12-01T14:35:45.685Z,100332.22
2022-12-01T14:38:49.861Z,100332.97
2022-12-01T14:42:00.231Z,100335.84
2022-12-01T14:45:03.691Z,100327.28
2022-12-01T14:48:09.841Z,100333.59
2022-12-01T14:51:20.835Z,100334.19
2022-12-01T14:54:34.771Z,100326.91
2022-12-01T14:57:49.523Z,100329.78
2022-12-01T15:01:23.985Z,100327.78
2022-12-01T15:04:26.053Z,100335.88
2022-12-01T15:07:27.597Z,100338.78
2022-12-01T15:10:35.307Z,100338.16
2022-12-01T15:13:53.224Z,100337.91
2022-12-01T15:16:54.759Z,100327.75
2022-12-01T15:19:56.214Z,100333.50
2022-12-01T15:22:58.560Z,100336.16
2022-12-01T15:26:00.699Z,100331.06
2022-12-01T15:29:28.256Z,100331.50
2022-12-01T15:32:31.668Z,100335.88
2022-12-01T15:35:33.599Z,100337.91
2022-12-01T15:38:37.812Z,100340.66
2022-12-01T15:41:43.096Z,100341.78
2022-12-01T15:44:44.679Z,100337.09
2022-12-01T15:47:48.941Z,100344.06
2022-12-01T15:51:08.797Z,100343.84
2022-12-01T15:54:23.154Z,100341.56
2022-12-01T15:57:24.626Z,100340.44
2022-12-01T16:00:27.304Z,100334.06
2022-12-01T16:03:30.451Z,100338.78
2022-12-01T16:06:34.881Z,100338.38
2022-12-01T16:09:38.814Z,100327.53
2022-12-01T16:12:40.220Z,100330.06
2022-12-01T16:15:44.797Z,100334.75
2022-12-01T16:18:57.523Z,100337.56
2022-12-01T16:22:05.080Z,100339.31
2022-12-01T16:25:06.872Z,100338.09
2022-12-01T16:28:31.020Z,100342.91
2022-12-01T16:31:32.649Z,100343.47
2022-12-01T16:34:46.021Z,100341.38
2022-12-01T16:37:48.090Z,100338.44
2022-12-01T16:40:51.914Z,100338.25
2022-12-01T16:44:20.326Z,100334.97
2022-12-01T16:47:19.124Z,100340.09
2022-12-01T16:50:22.377Z,100341.22
2022-12-01T16:53:23.796Z,100351.13
2022-12-01T16:56:25.187Z,100349.41
2022-12-01T16:59:26.691Z,100346.63
2022-12-01T17:02:28.194Z,100351.56
2022-12-01T17:05:29.720Z,100352.03
2022-12-01T17:08:31.454Z,100349.16
2022-12-01T17:11:33.070Z,100356.34
2022-12-01T17:14:35.912Z,100363.09
2022-12-01T17:17:38.579Z,100355.47
2022-12-01T17:20:40.036Z,100355.38
2022-12-01T17:23:41.494Z,100358.84
2022-12-01T17:26:42.949Z,100363.13
2022-12-01T17:29:46.339Z,100356.84
2022-12-01T17:32:48.046Z,100353.66
2022-12-01T17:35:49.862Z,100348.53
2022-12-01T17:38:51.397Z,100354.38
2022-12-01T17:41:56.271Z,100353.22
2022-12-01T17:44:57.777Z,100352.66
2022-12-01T17:47:59.288Z,100360.16
2022-12-01T17:51:00.682Z,100362.88
2022-12-01T17:54:02.159Z,100361.19
2022-12-01T17:57:03.866Z,100363.66
2022-12-01T18:00:06.688Z,100367.38
2022-12-01T18:03:11.139Z,100363.38
2022-12-01T18:06:13.255Z,100367.41
2022-12-01T18:09:14.697Z,100372.28
2022-12-01T18:12:16.116Z,100368.78
2022-12-01T18:15:18.132Z,100362.63
2022-12-01T18:18:19.777Z,100367.81
2022-12-01T18:21:25.070Z,100360.59
2022-12-01T18:24:26.532Z,100368.72
2022-12-01T18:27:28.899Z,100358.91
2022-12-01T18:30:30.887Z,100360.75
2022-12-01T18:33:33.504Z,100363.03
2022-12-01T18:36:37.305Z,100359.19
2022-12-01T18:39:38.968Z,100361.59
2022-12-01T18:42:40.382Z,100358.59
2022-12-01T18:45:41.840Z,100357.59
2022-12-01T18:48:45.827Z,100366.75
2022-12-01T18:51:47.218Z,100365.94
2022-12-01T18:54:48.872Z,100359.47
2022-12-01T18:57:50.446Z,100360.13
2022-12-01T19:00:51.887Z,100353.31
2022-12-01T19:03:57.699Z,100354.72
2022-12-01T19:06:59.208Z,100346.44
2022-12-01T19:10:00.757Z,100344.78
2022-12-01T19:13:02.187Z,100342.03
2022-12-01T19:16:07.030Z,100348.41
2022-12-01T19:19:09.606Z,100351.50
2022-12-01T19:22:11.021Z,100350.88
2022-12-01T19:25:13.420Z,100349.56
2022-12-01T19:28:14.794Z,100343.34
2022-12-01T19:31:19.285Z,100333.59
2022-12-01T19:34:20.904Z,100340.44
2022-12-01T19:37:22.426Z,100341.88
2022-12-01T19:40:23.799Z,100344.63
2022-12-01T19:43:25.253Z,100331.81
2022-12-01T19:46:28.612Z,100328.47
2022-12-01T19:49:30.150Z,100335.19
2022-12-01T19:52:31.538Z,100336.00
2022-12-01T19:55:33.010Z,100334.03
2022-12-01T19:58:34.808Z,100333.56
2022-12-01T20:01:36.408Z,100335.84
2022-12-01T20:04:39.475Z,100334.34
2022-12-01T20:07:41.083Z,100332.66
2022-12-01T20:10:47.786Z,100342.44
2022-12-01T20:13:49.247Z,100342.88
2022-12-01T20:16:50.764Z,100349.34
2022-12-01T20:19:52.257Z,100347.16
2022-12-01T20:22:53.734Z,100338.53
2022-12-01T20:25:58.875Z,100338.44
2022-12-01T20:29:04.224Z,100348.94
2022-12-01T20:32:05.875Z,100343.81
2022-12-01T20:35:07.580Z,100346.09
2022-12-01T20:38:09.141Z,100340.38
2022-12-01T20:41:11.094Z,100343.25
2022-12-01T20:44:13.385Z,100338.81
2022-12-01T20:47:18.337Z,100339.19
2022-12-01T20:50:19.732Z,100343.25
2022-12-01T20:53:22.289Z,100333.41
2022-12-01T20:56:23.694Z,100321.31
2022-12-01T20:59:25.640Z,100328.09
2022-12-01T21:02:27.190Z,100343.22
2022-12-01T21:05:29.067Z,100338.72
2022-12-01T21:08:31.623Z,100342.03
2022-12-01T21:11:55.482Z,100341.81
2022-12-01T21:15:02.887Z,100339.91
2022-12-01T21:18:12.315Z,100341.81
2022-12-01T21:21:38.715Z,100328.41
2022-12-01T21:24:44.016Z,100332.50
2022-12-01T21:27:46.859Z,100329.56
2022-12-01T21:30:49.487Z,100326.69
2022-12-01T21:33:51.026Z,100327.09
2022-12-01T21:36:56.074Z,100328.31
2022-12-01T21:39:57.573Z,100326.16
2022-12-01T21:43:11.367Z,100322.41
2022-12-01T21:46:17.767Z,100320.84
2022-12-01T21:49:30.551Z,100317.66
2022-12-01T21:52:40.941Z,100320.13
2022-12-01T21:55:44.596Z,100317.84
2022-12-01T21:58:46.204Z,100317.53
2022-12-01T22:01:56.427Z,100321.91
2022-12-01T22:04:59.331Z,100311.94
2022-12-01T22:08:15.253Z,100312.59
2022-12-01T22:11:18.538Z,100310.53
2022-12-01T22:14:40.231Z,100303.72
2022-12-01T22:17:41.705Z,100305.97
2022-12-01T22:20:43.096Z,100304.22
2022-12-01T22:23:44.806Z,100304.75
2022-12-01T22:26:49.197Z,100309.16
2022-12-01T22:30:05.723Z,100304.88
2022-12-01T22:33:22.608Z,100307.38
2022-12-01T22:36:30.191Z,100303.75
2022-12-01T22:39:35.874Z,100304.19
2022-12-01T22:42:37.458Z,100295.50
2022-12-01T22:45:39.280Z,100292.25
2022-12-01T22:48:44.088Z,100294.00
2022-12-01T22:51:50.847Z,100302.91
2022-12-01T22:54:52.518Z,100299.13
2022-12-01T22:57:54.982Z,100299.13
2022-12-01T23:01:02.268Z,100297.13
2022-12-01T23:04:21.095Z,100294.41
2022-12-01T23:07:41.308Z,100290.47
2022-12-01T23:10:42.845Z,100291.53
2022-12-01T23:13:44.259Z,100290.66
2022-12-01T23:16:45.734Z,100296.78
2022-12-01T23:19:49.687Z,100291.53
2022-12-01T23:22:56.648Z,100301.28
2022-12-01T23:25:58.738Z,100284.88
2022-12-01T23:29:01.252Z,100289.75
2022-12-01T23:32:02.755Z,100285.75
2022-12-01T23:35:05.799Z,100284.31
2022-12-01T23:38:18.076Z,100282.44
2022-12-01T23:41:38.924Z,100275.81
2022-12-01T23:44:45.382Z,100273.31
2022-12-01T23:47:47.408Z,100270.78
2022-12-01T23:50:54.250Z,100273.00
2022-12-01T23:54:00.446Z,100265.50
2022-12-01T23:57:10.203Z,100267.84
